createdAt,value
2022-10-30T00:00:04.884Z,17.94
2022-10-30T00:01:04.865Z,17.92
2022-10-30T00:02:04.976Z,17.89
2022-10-30T00:03:04.941Z,17.84
2022-10-30T00:04:04.840Z,17.81
2022-10-30T00:05:04.835Z,17.80
2022-10-30T00:06:04.847Z,17.80
2022-10-30T00:07:04.808Z,17.76
2022-10-30T00:08:04.789Z,17.76
2022-10-30T00:09:04.789Z,17.74
2022-10-30T00:10:04.798Z,17.70
2022-10-30T00:11:04.749Z,17.65
2022-10-30T00:12:04.739Z,17.62
2022-10-30T00:13:04.730Z,17.60
2022-10-30T00:14:04.750Z,17.63
2022-10-30T00:15:04.709Z,17.62
2022-10-30T00:16:04.709Z,17.60
2022-10-30T00:17:04.689Z,17.58
2022-10-30T00:18:04.780Z,17.60
2022-10-30T00:19:04.681Z,17.60
2022-10-30T00:20:04.650Z,17.62
2022-10-30T00:21:04.672Z,17.63
2022-10-30T00:22:36.792Z,17.68
2022-10-30T00:23:36.746Z,17.68
2022-10-30T00:24:36.751Z,17.68
2022-10-30T00:25:36.747Z,17.70
2022-10-30T00:26:36.733Z,17.68
2022-10-30T00:27:36.712Z,17.65
2022-10-30T00:28:36.699Z,17.63
2022-10-30T00:29:36.724Z,17.60
2022-10-30T00:30:36.664Z,17.57
2022-10-30T00:31:36.675Z,17.51
2022-10-30T00:32:36.663Z,17.47
2022-10-30T00:33:36.637Z,17.45
2022-10-30T00:34:36.624Z,17.39
2022-10-30T00:35:36.741Z,17.35
2022-10-30T00:36:36.635Z,17.32
2022-10-30T00:37:36.604Z,17.27
2022-10-30T00:38:36.583Z,17.24
2022-10-30T00:39:36.585Z,17.21
2022-10-30T00:40:36.576Z,17.24
2022-10-30T00:41:36.576Z,17.24
2022-10-30T00:42:36.546Z,17.27
2022-10-30T00:43:36.551Z,17.28
2022-10-30T00:44:36.529Z,17.33
2022-10-30T00:45:36.517Z,17.35
2022-10-30T00:46:36.510Z,17.33
2022-10-30T00:47:36.497Z,17.35
2022-10-30T00:48:36.504Z,17.35
2022-10-30T00:49:36.467Z,17.38
2022-10-30T00:50:36.459Z,17.38
2022-10-30T00:51:36.439Z,17.38
2022-10-30T00:52:36.431Z,17.36
2022-10-30T00:53:36.422Z,17.33
2022-10-30T00:54:36.421Z,17.30
2022-10-30T00:55:36.412Z,17.25
2022-10-30T00:56:36.389Z,17.24
2022-10-30T00:57:36.380Z,17.21
2022-10-30T00:58:36.362Z,17.17
2022-10-30T00:59:36.372Z,17.12
2022-10-30T01:00:36.344Z,17.07
2022-10-30T01:01:36.459Z,17.03
2022-10-30T01:02:36.407Z,16.99
2022-10-30T01:03:36.330Z,16.96
2022-10-30T01:04:36.313Z,16.90
2022-10-30T01:05:36.306Z,16.85
2022-10-30T01:06:36.293Z,16.81
2022-10-30T01:07:36.281Z,16.78
2022-10-30T01:08:36.327Z,16.75
2022-10-30T01:09:36.250Z,16.72
2022-10-30T01:10:36.243Z,16.67
2022-10-30T01:11:36.243Z,16.65
2022-10-30T01:12:36.223Z,16.60
2022-10-30T01:13:36.214Z,16.59
2022-10-30T01:14:36.224Z,16.55
2022-10-30T01:15:36.184Z,16.54
2022-10-30T01:16:36.185Z,16.51
2022-10-30T01:17:36.166Z,16.50
2022-10-30T01:18:36.145Z,16.47
2022-10-30T01:19:36.143Z,16.44
2022-10-30T01:20:36.155Z,16.41
2022-10-30T01:21:36.145Z,16.40
2022-10-30T01:22:36.116Z,16.36
2022-10-30T01:23:36.137Z,16.36
2022-10-30T01:24:36.103Z,16.33
2022-10-30T01:25:36.073Z,16.30
2022-10-30T01:26:36.064Z,16.29
2022-10-30T01:27:36.091Z,16.26
2022-10-30T01:28:36.067Z,16.23
2022-10-30T01:29:36.044Z,16.18
2022-10-30T01:30:36.017Z,16.14
2022-10-30T01:31:36.055Z,16.11
2022-10-30T01:32:35.996Z,16.06
2022-10-30T01:33:36.000Z,16.03
2022-10-30T01:34:36.091Z,16.03
2022-10-30T01:35:35.968Z,15.99
2022-10-30T01:36:35.956Z,15.98
2022-10-30T01:37:35.969Z,15.96
2022-10-30T01:38:35.943Z,15.95
2022-10-30T01:39:35.932Z,15.95
2022-10-30T01:40:35.929Z,15.95
2022-10-30T01:41:35.918Z,15.98
2022-10-30T01:42:35.901Z,15.99
2022-10-30T01:43:35.883Z,16.03
2022-10-30T01:44:35.871Z,16.03
2022-10-30T01:45:35.871Z,16.04
2022-10-30T01:46:35.859Z,16.07
2022-10-30T01:47:35.842Z,16.08
2022-10-30T01:48:35.851Z,16.07
2022-10-30T01:49:35.833Z,16.07
2022-10-30T01:50:35.821Z,16.07
2022-10-30T01:51:35.801Z,16.07
2022-10-30T01:52:35.782Z,16.07
2022-10-30T01:53:35.789Z,16.06
2022-10-30T01:54:35.763Z,16.04
2022-10-30T01:55:35.765Z,16.03
2022-10-30T01:56:35.733Z,16.01
2022-10-30T01:57:35.732Z,16.03
2022-10-30T01:58:35.753Z,15.99
2022-10-30T01:59:35.706Z,16.01
2022-10-30T02:00:35.705Z,15.99
2022-10-30T02:01:35.909Z,15.96
2022-10-30T02:02:35.879Z,15.96
2022-10-30T02:03:35.676Z,15.96
2022-10-30T02:04:35.677Z,15.96
2022-10-30T02:05:35.655Z,15.95
2022-10-30T02:06:35.636Z,15.93
2022-10-30T02:07:35.626Z,15.92
2022-10-30T02:08:35.647Z,15.92
2022-10-30T02:09:35.599Z,15.93
2022-10-30T02:10:35.598Z,15.93
2022-10-30T02:11:35.587Z,15.93
2022-10-30T02:12:35.566Z,15.93
2022-10-30T02:13:35.568Z,15.92
2022-10-30T02:14:35.549Z,15.91
2022-10-30T02:15:35.529Z,15.91
2022-10-30T02:16:35.528Z,15.89
2022-10-30T02:17:35.549Z,15.89
2022-10-30T02:18:35.550Z,15.86
2022-10-30T02:19:35.508Z,15.88
2022-10-30T02:20:35.483Z,15.88
2022-10-30T02:21:35.482Z,15.89
2022-10-30T02:22:35.523Z,15.88
2022-10-30T02:23:35.479Z,15.89
2022-10-30T02:24:35.450Z,15.88
2022-10-30T02:25:35.439Z,15.88
2022-10-30T02:26:35.420Z,15.86
2022-10-30T02:27:35.429Z,15.88
2022-10-30T02:28:35.431Z,15.98
2022-10-30T02:29:35.400Z,16.04
2022-10-30T02:30:35.371Z,16.08
2022-10-30T02:31:35.383Z,16.16
2022-10-30T02:32:35.361Z,16.26
2022-10-30T02:33:35.340Z,16.30
2022-10-30T02:34:35.361Z,16.30
2022-10-30T02:35:35.335Z,16.32
2022-10-30T02:36:35.323Z,16.30
2022-10-30T02:37:35.293Z,16.27
2022-10-30T02:38:35.324Z,16.25
2022-10-30T02:39:35.275Z,16.22
2022-10-30T02:40:35.295Z,16.16
2022-10-30T02:41:35.282Z,16.13
2022-10-30T02:42:35.261Z,16.11
2022-10-30T02:43:35.231Z,16.07
2022-10-30T02:44:35.242Z,16.04
2022-10-30T02:45:35.227Z,16.01
2022-10-30T02:46:35.234Z,15.98
2022-10-30T02:47:35.188Z,15.95
2022-10-30T02:48:35.205Z,15.93
2022-10-30T02:49:35.175Z,15.93
2022-10-30T02:50:35.156Z,15.91
2022-10-30T02:51:35.176Z,15.91
2022-10-30T02:52:35.152Z,15.88
2022-10-30T02:53:35.156Z,15.86
2022-10-30T02:54:35.137Z,15.85
2022-10-30T02:55:35.107Z,15.81
2022-10-30T02:56:35.111Z,15.81
2022-10-30T02:57:35.078Z,15.80
2022-10-30T02:58:35.098Z,15.78
2022-10-30T02:59:35.076Z,15.76
2022-10-30T03:00:35.079Z,15.76
2022-10-30T03:01:35.108Z,15.74
2022-10-30T03:02:35.028Z,15.73
2022-10-30T03:03:35.018Z,15.71
2022-10-30T03:04:35.018Z,15.71
2022-10-30T03:05:35.009Z,15.70
2022-10-30T03:06:35.016Z,15.68
2022-10-30T03:07:34.970Z,15.68
2022-10-30T03:08:34.980Z,15.67
2022-10-30T03:09:34.959Z,15.71
2022-10-30T03:10:34.970Z,15.77
2022-10-30T03:11:34.944Z,15.85
2022-10-30T03:12:34.921Z,15.89
2022-10-30T03:13:34.940Z,15.93
2022-10-30T03:14:34.912Z,15.96
2022-10-30T03:15:34.900Z,16.03
2022-10-30T03:16:34.911Z,16.10
2022-10-30T03:17:34.914Z,16.14
2022-10-30T03:18:34.872Z,16.22
2022-10-30T03:19:34.854Z,16.26
2022-10-30T03:20:34.862Z,16.32
2022-10-30T03:21:34.822Z,16.40
2022-10-30T03:22:34.843Z,16.41
2022-10-30T03:23:34.813Z,16.44
2022-10-30T03:24:34.833Z,16.45
2022-10-30T03:25:34.784Z,16.44
2022-10-30T03:26:34.784Z,16.47
2022-10-30T03:27:34.756Z,16.41
2022-10-30T03:28:34.778Z,16.37
2022-10-30T03:29:34.744Z,16.33
2022-10-30T03:30:34.754Z,16.29
2022-10-30T03:31:34.715Z,16.26
2022-10-30T03:32:34.705Z,16.18
2022-10-30T03:33:34.705Z,16.11
2022-10-30T03:34:34.715Z,16.08
2022-10-30T03:35:34.666Z,16.03
2022-10-30T03:36:34.666Z,15.99
2022-10-30T03:37:34.656Z,15.93
2022-10-30T03:38:34.657Z,15.88
2022-10-30T03:39:34.646Z,15.84
2022-10-30T03:40:34.617Z,15.81
2022-10-30T03:41:34.617Z,15.78
2022-10-30T03:42:34.611Z,15.74
2022-10-30T03:43:34.598Z,15.68
2022-10-30T03:44:34.588Z,15.66
2022-10-30T03:45:34.571Z,15.60
2022-10-30T03:46:34.568Z,15.58
2022-10-30T03:47:34.552Z,15.56
2022-10-30T03:48:34.569Z,15.52
2022-10-30T03:49:34.540Z,15.49
2022-10-30T03:50:34.520Z,15.46
2022-10-30T03:51:34.508Z,15.46
2022-10-30T03:52:34.510Z,15.43
2022-10-30T03:53:34.491Z,15.37
2022-10-30T03:54:34.488Z,15.35
2022-10-30T03:55:34.480Z,15.31
2022-10-30T03:56:34.461Z,15.33
2022-10-30T03:57:34.441Z,15.34
2022-10-30T03:58:34.432Z,15.34
2022-10-30T03:59:34.418Z,15.34
2022-10-30T04:00:34.422Z,15.33
2022-10-30T04:01:34.527Z,15.33
2022-10-30T04:02:34.401Z,15.33
2022-10-30T04:03:34.382Z,15.31
2022-10-30T04:04:34.362Z,15.30
2022-10-30T04:05:34.347Z,15.28
2022-10-30T04:06:34.373Z,15.27
2022-10-30T04:07:34.334Z,15.25
2022-10-30T04:08:34.347Z,15.23
2022-10-30T04:09:34.302Z,15.27
2022-10-30T04:10:34.332Z,15.31
2022-10-30T04:11:34.304Z,15.37
2022-10-30T04:12:34.295Z,15.43
2022-10-30T04:13:34.274Z,15.48
2022-10-30T04:14:34.275Z,15.49
2022-10-30T04:15:34.273Z,15.51
2022-10-30T04:16:34.235Z,15.48
2022-10-30T04:17:34.217Z,15.46
2022-10-30T04:18:34.256Z,15.43
2022-10-30T04:19:34.196Z,15.38
2022-10-30T04:20:34.186Z,15.35
2022-10-30T04:21:34.195Z,15.34
2022-10-30T04:22:34.185Z,15.33
2022-10-30T04:23:34.176Z,15.31
2022-10-30T04:24:34.159Z,15.30
2022-10-30T04:25:34.137Z,15.28
2022-10-30T04:26:34.148Z,15.28
2022-10-30T04:27:34.115Z,15.28
2022-10-30T04:28:34.108Z,15.27
2022-10-30T04:29:34.088Z,15.25
2022-10-30T04:30:34.101Z,15.23
2022-10-30T04:31:34.097Z,15.22
2022-10-30T04:32:34.071Z,15.20
2022-10-30T04:33:34.047Z,15.18
2022-10-30T04:34:34.039Z,15.18
2022-10-30T04:35:34.031Z,15.12
2022-10-30T04:36:34.069Z,15.13
2022-10-30T04:37:34.009Z,15.09
2022-10-30T04:38:34.024Z,15.07
2022-10-30T04:39:33.990Z,15.04
2022-10-30T04:40:33.982Z,15.03
2022-10-30T04:41:33.972Z,15.01
2022-10-30T04:42:33.951Z,15.00
2022-10-30T04:43:33.951Z,14.98
2022-10-30T04:44:33.931Z,14.95
2022-10-30T04:45:33.911Z,14.94
2022-10-30T04:46:34.001Z,14.94
2022-10-30T04:48:33.893Z,14.91
2022-10-30T04:49:33.914Z,14.91
2022-10-30T04:50:33.872Z,14.90
2022-10-30T04:51:33.855Z,14.87
2022-10-30T04:52:33.844Z,14.86
2022-10-30T04:53:33.866Z,14.86
2022-10-30T04:54:33.820Z,14.85
2022-10-30T04:55:33.801Z,14.82
2022-10-30T04:56:33.795Z,14.80
2022-10-30T04:57:33.794Z,14.79
2022-10-30T04:58:33.784Z,14.78
2022-10-30T04:59:33.776Z,14.78
2022-10-30T05:00:33.766Z,14.75
2022-10-30T05:01:33.887Z,14.74
2022-10-30T05:02:33.872Z,14.74
2022-10-30T05:03:33.725Z,14.72
2022-10-30T05:04:33.760Z,14.71
2022-10-30T05:05:33.697Z,14.71
2022-10-30T05:06:33.694Z,14.69
2022-10-30T05:07:33.686Z,14.71
2022-10-30T05:08:33.689Z,14.69
2022-10-30T05:09:33.647Z,14.71
2022-10-30T05:10:33.680Z,14.74
2022-10-30T05:11:33.650Z,14.79
2022-10-30T05:12:33.625Z,14.83
2022-10-30T05:13:33.627Z,14.86
2022-10-30T05:14:33.617Z,14.86
2022-10-30T05:15:33.599Z,14.86
2022-10-30T05:16:33.618Z,14.86
2022-10-30T05:17:33.570Z,14.86
2022-10-30T05:18:33.588Z,14.85
2022-10-30T05:19:33.560Z,14.83
2022-10-30T05:20:33.549Z,14.82
2022-10-30T05:21:33.551Z,14.80
2022-10-30T05:22:33.513Z,14.79
2022-10-30T05:23:33.521Z,14.78
2022-10-30T05:24:33.490Z,14.75
2022-10-30T05:25:33.481Z,14.74
2022-10-30T05:26:33.480Z,14.72
2022-10-30T05:27:33.480Z,14.71
2022-10-30T05:28:33.484Z,14.71
2022-10-30T05:29:33.445Z,14.66
2022-10-30T05:30:33.451Z,14.64
2022-10-30T05:31:33.451Z,14.63
2022-10-30T05:32:33.432Z,14.61
2022-10-30T05:33:33.402Z,14.59
2022-10-30T05:34:34.123Z,14.56
2022-10-30T05:35:33.522Z,14.54
2022-10-30T05:36:33.363Z,14.52
2022-10-30T05:37:33.382Z,14.52
2022-10-30T05:38:33.352Z,14.49
2022-10-30T05:39:33.336Z,14.49
2022-10-30T05:40:33.334Z,14.45
2022-10-30T05:41:33.314Z,14.46
2022-10-30T05:42:33.316Z,14.45
2022-10-30T05:43:33.289Z,14.42
2022-10-30T05:44:58.600Z,14.41
2022-10-30T05:45:34.275Z,14.41
2022-10-30T05:46:33.285Z,14.38
2022-10-30T05:47:33.254Z,14.38
2022-10-30T05:48:33.228Z,14.36
2022-10-30T05:49:33.226Z,14.35
2022-10-30T05:50:33.204Z,14.35
2022-10-30T05:51:37.925Z,14.31
2022-10-30T05:52:34.214Z,14.30
2022-10-30T05:53:33.176Z,14.29
2022-10-30T05:54:33.156Z,14.27
2022-10-30T05:55:33.197Z,14.26
2022-10-30T05:56:33.140Z,14.24
2022-10-30T05:57:33.158Z,14.27
2022-10-30T05:58:33.125Z,14.23
2022-10-30T05:59:33.129Z,14.24
2022-10-30T06:00:33.106Z,14.23
2022-10-30T06:01:33.260Z,14.23
2022-10-30T06:02:33.130Z,14.23
2022-10-30T06:03:33.089Z,14.24
2022-10-30T06:04:33.068Z,14.24
2022-10-30T06:05:33.060Z,14.26
2022-10-30T06:06:33.060Z,14.26
2022-10-30T06:07:33.055Z,14.26
2022-10-30T06:08:33.028Z,14.27
2022-10-30T06:09:33.022Z,14.24
2022-10-30T06:10:32.989Z,14.24
2022-10-30T06:11:33.009Z,14.26
2022-10-30T06:12:32.970Z,14.26
2022-10-30T06:13:32.960Z,14.27
2022-10-30T06:14:32.960Z,14.29
2022-10-30T06:15:32.940Z,14.30
2022-10-30T06:17:32.934Z,14.29
2022-10-30T06:18:32.913Z,14.29
2022-10-30T06:19:32.893Z,14.30
2022-10-30T06:20:32.882Z,14.30
2022-10-30T06:21:32.893Z,14.30
2022-10-30T06:22:32.865Z,14.27
2022-10-30T06:23:32.862Z,14.29
2022-10-30T06:24:32.850Z,14.27
2022-10-30T06:25:37.779Z,14.26
2022-10-30T06:26:33.837Z,14.26
2022-10-30T06:27:32.824Z,14.26
2022-10-30T06:28:32.793Z,14.24
2022-10-30T06:29:32.813Z,14.24
2022-10-30T06:30:32.811Z,14.26
2022-10-30T06:31:32.824Z,14.26
2022-10-30T06:32:32.774Z,14.26
2022-10-30T06:33:32.757Z,14.24
2022-10-30T06:34:32.732Z,14.23
2022-10-30T06:35:32.725Z,14.24
2022-10-30T06:36:32.786Z,14.24
2022-10-30T06:37:32.726Z,14.24
2022-10-30T06:38:32.685Z,14.24
2022-10-30T06:39:32.685Z,14.23
2022-10-30T06:40:32.676Z,14.24
2022-10-30T06:41:32.689Z,14.24
2022-10-30T06:42:32.676Z,14.26
2022-10-30T06:43:32.637Z,14.27
2022-10-30T06:44:32.616Z,14.27
2022-10-30T06:45:32.627Z,14.27
2022-10-30T06:46:33.862Z,14.31
2022-10-30T06:47:32.607Z,14.31
2022-10-30T06:48:32.740Z,14.35
2022-10-30T06:49:32.589Z,14.36
2022-10-30T06:50:33.710Z,14.38
2022-10-30T06:51:32.588Z,14.39
2022-10-30T06:52:32.644Z,14.45
2022-10-30T06:53:32.586Z,14.46
2022-10-30T06:54:33.569Z,14.53
2022-10-30T06:55:32.538Z,14.57
2022-10-30T06:56:32.608Z,14.57
2022-10-30T06:57:32.532Z,14.59
2022-10-30T06:58:32.567Z,14.66
2022-10-30T06:59:32.479Z,14.71
2022-10-30T07:00:32.686Z,14.72
2022-10-30T07:01:32.538Z,14.74
2022-10-30T07:02:33.761Z,14.74
2022-10-30T07:03:32.442Z,14.72
2022-10-30T07:04:33.011Z,14.71
2022-10-30T07:05:32.432Z,14.69
2022-10-30T07:06:32.393Z,14.67
2022-10-30T07:07:32.393Z,14.67
2022-10-30T07:08:32.391Z,14.67
2022-10-30T07:09:32.350Z,14.66
2022-10-30T07:10:32.350Z,14.66
2022-10-30T07:11:32.342Z,14.66
2022-10-30T07:12:32.313Z,14.66
2022-10-30T07:13:32.310Z,14.63
2022-10-30T07:14:32.302Z,14.64
2022-10-30T07:15:32.351Z,14.64
2022-10-30T07:16:32.303Z,14.63
2022-10-30T07:17:32.272Z,14.64
2022-10-30T07:18:32.251Z,14.64
2022-10-30T07:19:32.266Z,14.64
2022-10-30T07:20:32.246Z,14.66
2022-10-30T07:21:32.255Z,14.66
2022-10-30T07:22:32.225Z,14.67
2022-10-30T07:23:32.204Z,14.69
2022-10-30T07:24:32.216Z,14.69
2022-10-30T07:25:32.198Z,14.71
2022-10-30T07:26:32.168Z,14.72
2022-10-30T07:27:32.162Z,14.72
2022-10-30T07:28:32.157Z,14.74
2022-10-30T07:29:32.145Z,14.74
2022-10-30T07:30:32.138Z,14.75
2022-10-30T07:31:42.400Z,14.78
2022-10-30T07:32:33.107Z,14.79
2022-10-30T07:33:32.152Z,14.78
2022-10-30T07:34:32.093Z,14.80
2022-10-30T07:35:32.087Z,14.80
2022-10-30T07:36:32.078Z,14.80
2022-10-30T07:37:32.094Z,14.80
2022-10-30T07:38:32.056Z,14.83
2022-10-30T07:39:32.065Z,14.85
2022-10-30T07:40:32.017Z,14.86
2022-10-30T07:41:32.026Z,14.87
2022-10-30T07:42:32.008Z,14.90
2022-10-30T07:43:32.023Z,14.90
2022-10-30T07:44:31.998Z,14.93
2022-10-30T07:45:31.987Z,14.94
2022-10-30T07:46:31.939Z,14.94
2022-10-30T07:47:31.938Z,14.95
2022-10-30T07:48:31.926Z,15.00
2022-10-30T07:49:31.950Z,15.00
2022-10-30T07:50:31.937Z,15.01
2022-10-30T07:51:31.909Z,15.03
2022-10-30T07:52:31.881Z,15.04
2022-10-30T07:53:31.879Z,15.07
2022-10-30T07:54:31.901Z,15.09
2022-10-30T07:55:31.871Z,15.12
2022-10-30T07:56:31.841Z,15.13
2022-10-30T07:57:31.851Z,15.15
2022-10-30T07:58:31.833Z,15.18
2022-10-30T07:59:31.820Z,15.18
2022-10-30T08:00:31.834Z,15.18
2022-10-30T08:01:31.967Z,15.20
2022-10-30T08:02:31.957Z,15.22
2022-10-30T08:03:31.772Z,15.25
2022-10-30T08:04:31.773Z,15.27
2022-10-30T08:05:31.784Z,15.27
2022-10-30T08:06:31.743Z,15.31
2022-10-30T08:07:31.728Z,15.33
2022-10-30T08:08:31.714Z,15.35
2022-10-30T08:09:31.702Z,15.38
2022-10-30T08:10:31.696Z,15.40
2022-10-30T08:11:31.704Z,15.40
2022-10-30T08:12:31.694Z,15.43
2022-10-30T08:13:31.674Z,15.46
2022-10-30T08:14:31.645Z,15.48
2022-10-30T08:15:31.645Z,15.49
2022-10-30T08:16:31.627Z,15.51
2022-10-30T08:17:31.635Z,15.52
2022-10-30T08:18:31.605Z,15.53
2022-10-30T08:19:31.605Z,15.55
2022-10-30T08:20:31.594Z,15.59
2022-10-30T08:21:31.659Z,15.58
2022-10-30T08:22:31.560Z,15.62
2022-10-30T08:23:32.281Z,15.66
2022-10-30T08:24:31.547Z,15.66
2022-10-30T08:25:32.246Z,15.68
2022-10-30T08:26:31.579Z,15.73
2022-10-30T08:27:32.227Z,15.73
2022-10-30T08:28:32.894Z,15.74
2022-10-30T08:29:32.209Z,15.76
2022-10-30T08:30:31.505Z,15.77
2022-10-30T08:31:31.566Z,15.77
2022-10-30T08:32:31.556Z,15.78
2022-10-30T08:33:31.666Z,15.80
2022-10-30T08:34:31.457Z,15.81
2022-10-30T08:35:31.484Z,15.84
2022-10-30T08:36:31.400Z,15.84
2022-10-30T08:37:31.419Z,15.88
2022-10-30T08:38:31.410Z,15.89
2022-10-30T08:39:31.383Z,15.93
2022-10-30T08:40:31.377Z,15.93
2022-10-30T08:41:31.380Z,15.96
2022-10-30T08:42:31.439Z,15.99
2022-10-30T08:43:31.331Z,16.01
2022-10-30T08:44:31.333Z,16.04
2022-10-30T08:45:31.597Z,16.04
2022-10-30T08:46:31.301Z,16.07
2022-10-30T08:47:31.311Z,16.07
2022-10-30T08:48:31.292Z,16.10
2022-10-30T08:49:31.267Z,16.13
2022-10-30T08:50:31.274Z,16.14
2022-10-30T08:51:31.235Z,16.17
2022-10-30T08:52:31.243Z,16.17
2022-10-30T08:53:31.222Z,16.22
2022-10-30T08:54:31.214Z,16.23
2022-10-30T08:55:31.228Z,16.27
2022-10-30T08:56:31.206Z,16.27
2022-10-30T08:57:31.184Z,16.29
2022-10-30T08:58:31.198Z,16.32
2022-10-30T08:59:31.175Z,16.32
2022-10-30T09:00:31.182Z,16.33
2022-10-30T09:01:31.328Z,16.36
2022-10-30T09:02:31.240Z,16.37
2022-10-30T09:03:31.112Z,16.40
2022-10-30T09:04:31.168Z,16.42
2022-10-30T09:05:31.097Z,16.45
2022-10-30T09:06:31.108Z,16.45
2022-10-30T09:07:31.076Z,16.47
2022-10-30T09:08:31.090Z,16.48
2022-10-30T09:09:31.068Z,16.50
2022-10-30T09:10:31.071Z,16.51
2022-10-30T09:11:31.061Z,16.54
2022-10-30T09:12:31.066Z,16.59
2022-10-30T09:13:31.027Z,16.63
2022-10-30T09:14:31.007Z,16.65
2022-10-30T09:15:31.009Z,16.66
2022-10-30T09:16:30.979Z,16.70
2022-10-30T09:17:30.976Z,16.72
2022-10-30T09:18:30.970Z,16.73
2022-10-30T09:19:30.949Z,16.77
2022-10-30T09:20:30.942Z,16.81
2022-10-30T09:21:30.941Z,16.84
2022-10-30T09:22:30.930Z,16.87
2022-10-30T09:23:30.911Z,16.90
2022-10-30T09:24:30.901Z,16.91
2022-10-30T09:25:30.890Z,16.95
2022-10-30T09:26:30.891Z,16.99
2022-10-30T09:27:30.853Z,17.00
2022-10-30T09:28:30.887Z,17.02
2022-10-30T09:29:30.852Z,17.03
2022-10-30T09:30:30.831Z,17.05
2022-10-30T09:31:30.831Z,17.10
2022-10-30T09:32:30.871Z,17.10
2022-10-30T09:33:30.801Z,17.14
2022-10-30T09:34:30.805Z,17.18
2022-10-30T09:35:30.763Z,17.21
2022-10-30T09:36:30.796Z,17.25
2022-10-30T09:37:30.810Z,17.27
2022-10-30T09:38:30.745Z,17.28
2022-10-30T09:39:30.733Z,17.32
2022-10-30T09:40:30.771Z,17.32
2022-10-30T09:41:30.717Z,17.35
2022-10-30T09:42:30.695Z,17.38
2022-10-30T09:43:30.682Z,17.39
2022-10-30T09:44:30.675Z,17.42
2022-10-30T09:45:30.687Z,17.45
2022-10-30T09:46:30.661Z,17.47
2022-10-30T09:47:30.636Z,17.49
2022-10-30T09:48:30.626Z,17.54
2022-10-30T09:49:30.616Z,17.57
2022-10-30T09:50:32.199Z,17.62
2022-10-30T09:51:31.616Z,17.65
2022-10-30T09:52:30.605Z,17.68
2022-10-30T09:53:30.570Z,17.73
2022-10-30T09:54:30.567Z,17.76
2022-10-30T09:55:30.585Z,17.79
2022-10-30T09:56:30.545Z,17.83
2022-10-30T09:57:30.533Z,17.87
2022-10-30T09:58:30.540Z,17.91
2022-10-30T09:59:30.524Z,17.96
2022-10-30T10:00:30.509Z,18.01
2022-10-30T10:01:30.647Z,18.05
2022-10-30T10:02:30.575Z,18.09
2022-10-30T10:03:30.468Z,18.16
2022-10-30T10:04:30.450Z,18.25
2022-10-30T10:05:30.440Z,18.32
2022-10-30T10:06:30.449Z,18.38
2022-10-30T10:07:30.450Z,18.46
2022-10-30T10:08:30.418Z,18.50
2022-10-30T10:09:30.466Z,18.56
2022-10-30T10:10:30.401Z,18.64
2022-10-30T10:11:30.383Z,18.71
2022-10-30T10:12:30.376Z,18.79
2022-10-30T10:13:30.354Z,18.87
2022-10-30T10:14:30.373Z,18.91
2022-10-30T10:15:30.332Z,18.94
2022-10-30T10:16:30.373Z,18.99
2022-10-30T10:17:30.322Z,19.02
2022-10-30T10:18:30.300Z,19.07
2022-10-30T10:19:30.282Z,19.13
2022-10-30T10:20:30.319Z,19.16
2022-10-30T10:21:30.275Z,19.21
2022-10-30T10:22:30.263Z,19.25
2022-10-30T10:23:30.254Z,19.30
2022-10-30T10:24:30.245Z,19.32
2022-10-30T10:25:30.256Z,19.39
2022-10-30T10:26:30.215Z,19.43
2022-10-30T10:27:30.196Z,19.45
2022-10-30T10:28:35.773Z,19.49
2022-10-30T10:29:31.186Z,19.57
2022-10-30T10:30:30.166Z,19.67
2022-10-30T10:31:30.194Z,19.78
2022-10-30T10:32:30.185Z,19.82
2022-10-30T10:33:30.150Z,19.90
2022-10-30T10:34:30.136Z,19.95
2022-10-30T10:35:30.125Z,20.01
2022-10-30T10:36:30.111Z,20.05
2022-10-30T10:37:30.138Z,20.12
2022-10-30T10:38:30.097Z,20.17
2022-10-30T10:39:30.108Z,20.23
2022-10-30T10:40:30.068Z,20.27
2022-10-30T10:41:30.069Z,20.33
2022-10-30T10:42:30.068Z,20.40
2022-10-30T10:43:30.146Z,20.48
2022-10-30T10:44:30.059Z,20.54
2022-10-30T10:45:30.042Z,20.58
2022-10-30T10:46:30.083Z,20.64
2022-10-30T10:47:30.842Z,20.68
2022-10-30T10:48:29.992Z,20.73
2022-10-30T10:49:29.990Z,20.79
2022-10-30T10:50:30.065Z,20.81
2022-10-30T10:51:29.972Z,20.87
2022-10-30T10:52:29.992Z,20.91
2022-10-30T10:53:29.969Z,20.96
2022-10-30T10:54:29.921Z,21.01
2022-10-30T10:55:29.915Z,21.08
2022-10-30T10:56:29.916Z,21.13
2022-10-30T10:57:29.971Z,21.18
2022-10-30T10:58:29.892Z,21.21
2022-10-30T10:59:29.905Z,21.27
2022-10-30T11:00:29.864Z,21.36
2022-10-30T11:01:29.939Z,21.42
2022-10-30T11:02:29.961Z,21.49
2022-10-30T11:03:29.851Z,21.55
2022-10-30T11:04:29.806Z,21.61
2022-10-30T11:05:29.791Z,21.63
2022-10-30T11:06:29.774Z,21.70
2022-10-30T11:07:29.769Z,21.77
2022-10-30T11:08:29.786Z,21.89
2022-10-30T11:09:29.741Z,21.96
2022-10-30T11:10:29.778Z,22.05
2022-10-30T11:11:29.717Z,22.08
2022-10-30T11:12:33.634Z,22.19
2022-10-30T11:13:30.710Z,22.29
2022-10-30T11:14:29.694Z,22.36
2022-10-30T11:15:29.678Z,22.48
2022-10-30T11:16:29.688Z,22.60
2022-10-30T11:17:29.668Z,22.72
2022-10-30T11:18:29.652Z,22.75
2022-10-30T11:19:29.662Z,22.84
2022-10-30T11:20:29.652Z,22.97
2022-10-30T11:21:29.616Z,23.01
2022-10-30T11:22:29.653Z,23.16
2022-10-30T11:23:29.619Z,23.26
2022-10-30T11:24:29.603Z,23.35
2022-10-30T11:25:31.388Z,23.53
2022-10-30T11:26:29.578Z,23.69
2022-10-30T11:27:29.567Z,23.84
2022-10-30T11:28:29.545Z,23.99
2022-10-30T11:29:29.540Z,24.12
2022-10-30T11:30:29.533Z,24.29
2022-10-30T11:31:29.533Z,24.52
2022-10-30T11:32:29.516Z,24.74
2022-10-30T11:33:29.515Z,24.97
2022-10-30T11:34:29.483Z,25.17
2022-10-30T11:35:29.495Z,25.42
2022-10-30T11:36:29.495Z,25.76
2022-10-30T11:37:29.455Z,26.13
2022-10-30T11:38:29.436Z,26.64
2022-10-30T11:39:29.422Z,27.21
2022-10-30T11:40:29.425Z,27.99
2022-10-30T11:41:29.437Z,28.94
2022-10-30T11:42:29.386Z,29.92
2022-10-30T11:43:29.396Z,30.70
2022-10-30T11:44:29.375Z,31.45
2022-10-30T11:45:29.354Z,32.17
2022-10-30T11:46:29.368Z,32.95
2022-10-30T11:47:29.385Z,33.65
2022-10-30T11:48:29.341Z,34.28
2022-10-30T11:49:29.319Z,34.86
2022-10-30T11:50:29.309Z,35.25
2022-10-30T11:51:29.453Z,35.77
2022-10-30T11:52:29.311Z,36.38
2022-10-30T11:53:29.281Z,36.89
2022-10-30T11:54:29.273Z,37.09
2022-10-30T11:55:29.262Z,36.82
2022-10-30T11:56:29.245Z,36.15
2022-10-30T11:57:29.263Z,35.46
2022-10-30T11:58:29.243Z,34.81
2022-10-30T11:59:29.223Z,34.28
2022-10-30T12:00:29.205Z,33.90
2022-10-30T12:01:29.220Z,33.43
2022-10-30T12:02:29.453Z,33.24
2022-10-30T12:03:29.175Z,33.29
2022-10-30T12:04:29.175Z,33.47
2022-10-30T12:05:29.216Z,33.38
2022-10-30T12:06:29.171Z,33.31
2022-10-30T12:07:29.125Z,33.26
2022-10-30T12:08:29.117Z,33.14
2022-10-30T12:09:29.118Z,32.99
2022-10-30T12:10:29.109Z,32.85
2022-10-30T12:11:29.120Z,32.62
2022-10-30T12:12:29.082Z,32.39
2022-10-30T12:13:29.079Z,32.28
2022-10-30T12:14:29.055Z,32.17
2022-10-30T12:15:29.063Z,32.02
2022-10-30T12:16:29.044Z,31.97
2022-10-30T12:17:29.162Z,32.09
2022-10-30T12:19:29.010Z,32.44
2022-10-30T12:20:29.004Z,32.80
2022-10-30T12:21:28.993Z,33.05
2022-10-30T12:22:29.004Z,33.12
2022-10-30T12:23:28.971Z,33.18
2022-10-30T12:24:29.004Z,33.20
2022-10-30T12:25:28.946Z,33.17
2022-10-30T12:26:28.926Z,33.11
2022-10-30T12:27:28.928Z,33.09
2022-10-30T12:28:28.919Z,33.02
2022-10-30T12:29:41.643Z,32.87
2022-10-30T12:30:29.925Z,32.87
2022-10-30T12:31:28.886Z,33.02
2022-10-30T12:32:28.876Z,33.18
2022-10-30T12:33:28.868Z,33.14
2022-10-30T12:34:28.846Z,33.17
2022-10-30T12:35:28.843Z,33.43
2022-10-30T12:36:28.855Z,33.63
2022-10-30T12:37:28.828Z,33.82
2022-10-30T12:38:28.821Z,34.08
2022-10-30T12:39:28.810Z,34.43
2022-10-30T12:40:28.803Z,34.76
2022-10-30T12:41:28.802Z,35.10
2022-10-30T12:42:28.793Z,35.36
2022-10-30T12:43:28.773Z,35.49
2022-10-30T12:44:28.743Z,35.46
2022-10-30T12:45:28.995Z,35.36
2022-10-30T12:46:28.771Z,35.20
2022-10-30T12:47:28.726Z,35.07
2022-10-30T12:48:28.757Z,35.12
2022-10-30T12:49:28.686Z,35.25
2022-10-30T12:50:28.687Z,35.39
2022-10-30T12:51:28.667Z,35.46
2022-10-30T12:52:28.658Z,35.34
2022-10-30T12:53:28.658Z,35.15
2022-10-30T12:54:28.659Z,35.17
2022-10-30T12:55:28.718Z,35.29